Flight Track Log - Related Links

Times and Time Zones

All times are in EDT time to prevent confusion due to time zone crossing. See the N773NC flight status page for this flight to view local times or setup timezone preferences in your user account.

Time Position Orientation Groundspeed Altitude Reporting Facility
EDT Latitude Longitude Course Direction KTS MPH feet Rate Location/Type
Mon 08:41:54 PM 41.9167 -87.9333 192° South 208 239 2,900  Level Chicago TRACON
Mon 08:43:40 PM 41.8167 -87.9625 166° South 231 266 6,300 2,349 Climbing Chicago Center
Mon 08:44:40 PM 41.7372 -87.9364 164° South 266 306 9,400 2,800 Climbing Chicago Center
Mon 08:45:40 PM 41.6597 -87.9075 167° South 282 325 11,900 1,850 Climbing Chicago Center
Mon 08:46:40 PM 41.5656 -87.8789 167° South 308 354 13,100 2,050 Climbing Chicago Center
Mon 08:47:40 PM 41.4650 -87.8481 165° South 349 402 16,000 2,350 Climbing Chicago Center
Mon 08:48:40 PM 41.3603 -87.8117 169° South 376 433 17,800 2,000 Climbing Chicago Center
Mon 08:49:40 PM 41.2642 -87.7864 169° South 387 445 20,000 2,050 Climbing Chicago Center
Mon 08:50:40 PM 41.1553 -87.7586 170° South 397 457 21,900 1,900 Climbing Chicago Center
Mon 08:51:40 PM 41.0425 -87.7311 169° South 407 468 23,800 1,750 Climbing Chicago Center
Mon 08:52:40 PM 40.9272 -87.7011 169° South 412 474 25,400 1,650 Climbing Chicago Center
Mon 08:53:40 PM 40.8144 -87.6708 168° South 417 480 27,100 1,450 Climbing Chicago Center
Mon 08:54:40 PM 40.6969 -87.6383 167° South 417 480 28,300 1,300 Climbing Chicago Center
Mon 08:55:40 PM 40.5650 -87.5981 171° South 436 502 29,700 1,650 Climbing Chicago Center
Mon 08:56:40 PM 40.4481 -87.5739 173° South 436 502 31,600 2,031 Climbing Chicago Center
Mon 08:57:47 PM 40.3317 -87.5544 173° South 428 493 34,000 1,417 Climbing Indianapolis Center
Mon 08:58:47 PM 40.2258 -87.5375 175° South 403 464 34,600 500 Climbing Indianapolis Center
Mon 08:59:47 PM 40.1178 -87.5261 173° South 393 452 35,000 200 Climbing Indianapolis Center
Mon 09:00:47 PM 40.0081 -87.5089 164° South 398 458 35,000  Level Indianapolis Center
Mon 09:01:47 PM 39.8989 -87.4675 153° Southeast 411 473 35,000  Level Indianapolis Center
Mon 09:02:47 PM 39.7928 -87.3967 154° Southeast 422 486 35,000  Level Indianapolis Center
Mon 09:03:47 PM 39.6864 -87.3289 156° South 429 494 35,000  Level Indianapolis Center
Mon 09:04:47 PM 39.5819 -87.2694 167° South 420 483 35,000  Level Indianapolis Center
Mon 09:05:47 PM 39.4706 -87.2367 166° South 409 471 35,000  Level Indianapolis Center
Mon 09:06:47 PM 39.3589 -87.2014 170° South 409 471 35,000  Level Indianapolis Center
Mon 09:07:47 PM 39.2492 -87.1769 171° South 409 471 35,000  Level Indianapolis Center
Mon 09:08:47 PM 39.1392 -87.1553 167° South 404 465 35,000  Level Indianapolis Center
Mon 09:09:47 PM 39.0194 -87.1200 165° South 404 465 35,000  Level Indianapolis Center
Mon 09:10:47 PM 38.9078 -87.0825 165° South 410 472 35,000  Level Indianapolis Center
Mon 09:11:47 PM 38.7964 -87.0450 166° South 410 472 35,000  Level Indianapolis Center
Mon 09:12:47 PM 38.6950 -87.0136 166° South 415 478 35,000  Level Indianapolis Center
Mon 09:13:47 PM 38.5814 -86.9761 165° South 410 472 35,000  Level Indianapolis Center
Mon 09:14:47 PM 38.4700 -86.9392 163° South 410 472 35,000  Level Indianapolis Center
Mon 09:15:47 PM 38.3583 -86.8969 169° South 415 478 35,000  Level Indianapolis Center
Mon 09:16:47 PM 38.2425 -86.8678 167° South 421 484 35,000  Level Indianapolis Center
Mon 09:17:47 PM 38.1164 -86.8303 168° South 426 490 35,000  Level Indianapolis Center
Mon 09:18:47 PM 38.0044 -86.7992 168° South 426 490 35,000  Level Indianapolis Center
Mon 09:19:47 PM 37.8906 -86.7678 168° South 426 490 35,000  Level Indianapolis Center
Mon 09:22:05 PM 37.6236 -86.6969 169° South 421 484 35,000  Level Memphis Center
Mon 09:23:05 PM 37.5061 -86.6683 165° South 426 490 35,000  Level Memphis Center
Mon 09:24:05 PM 37.4053 -86.6339 158° South 426 490 35,000  Level Memphis Center
Mon 09:25:05 PM 37.2908 -86.5767 151° Southeast 431 496 35,000  Level Memphis Center
Mon 09:26:05 PM 37.1867 -86.5036 162° South 436 502 35,000  Level Memphis Center
Mon 09:27:05 PM 37.0728 -86.4569 175° South 436 502 35,000  Level Memphis Center
Mon 09:28:05 PM 36.9536 -86.4447 176° South 424 488 35,000  Level Memphis Center
Mon 09:29:05 PM 36.8239 -86.4328 184° South 433 498 35,000  Level Memphis Center
Mon 09:30:05 PM 36.7075 -86.4439 185° South 428 493 35,000  Level Memphis Center
Mon 09:31:06 PM 36.5892 -86.4572 176° South 433 498 35,000 -350 Level Memphis Center
Mon 09:32:05 PM 36.4681 -86.4475 173° South 428 493 34,300 -807 Descending Memphis Center
Mon 09:33:05 PM 36.3467 -86.4303 175° South 434 499 33,400 -650 Descending Memphis Center
Mon 09:34:05 PM 36.2231 -86.4181 176° South 445 512 33,000 -200 Descending Memphis Center
Mon 09:35:05 PM 36.1144 -86.4081 175° South 445 512 33,000  Level Memphis Center
Mon 09:36:05 PM 35.9908 -86.3936 175° South 445 512 33,000  Level Memphis Center
Mon 09:37:52 PM 35.7589 -86.3675 167° South 433 498 33,000  Level Atlanta Center
Mon 09:38:52 PM 35.6364 -86.3333 156° South 444 511 33,000  Level Atlanta Center
Mon 09:39:52 PM 35.5208 -86.2689 152° Southeast 450 518 33,000  Level Atlanta Center
Mon 09:40:52 PM 35.4072 -86.1944 150° Southeast 457 526 33,000  Level Atlanta Center
Mon 09:41:52 PM 35.2961 -86.1153 146° Southeast 463 533 33,000  Level Atlanta Center
Mon 09:42:52 PM 35.1869 -86.0261 146° Southeast 468 539 33,000  Level Atlanta Center
Mon 09:43:52 PM 35.0797 -85.9372 146° Southeast 468 539 33,000 -550 Level Atlanta Center
Mon 09:44:52 PM 34.9728 -85.8486 141° Southeast 473 544 31,900 -1,300 Descending Atlanta Center
Mon 09:45:52 PM 34.8717 -85.7503 133° Southeast 473 544 30,400 -2,600 Descending Atlanta Center
Mon 09:46:52 PM 34.7856 -85.6397 138° Southeast 461 531 26,700 -3,550 Descending Atlanta Center
Mon 09:47:52 PM 34.6931 -85.5369 140° Southeast 456 525 23,300 -3,100 Descending Atlanta Center
Mon 09:48:52 PM 34.5942 -85.4367 146° Southeast 461 531 20,500 -2,850 Descending Atlanta Center
Mon 09:49:52 PM 34.4928 -85.3544 148° Southeast 454 522 17,600 -1,900 Descending Atlanta Center
Mon 09:50:52 PM 34.3953 -85.2800 145° Southeast 441 507 16,700 -1,200 Descending Atlanta Center
Mon 09:51:52 PM 34.3083 -85.2056 147° Southeast 405 466 15,200 -1,300 Descending Atlanta Center
Mon 09:52:52 PM 34.2131 -85.1314 138° Southeast 399 459 14,100 -600 Descending Atlanta Center
Mon 09:53:52 PM 34.1283 -85.0400 138° Southeast 405 466 14,000 -250 Descending Atlanta Center
Mon 09:54:52 PM 34.0414 -84.9464 138° Southeast 411 473 13,600 -750 Descending Atlanta Center
Mon 09:55:52 PM 33.9564 -84.8553 135° Southeast 411 473 12,500 -1,050 Descending Atlanta Center
Mon 09:56:52 PM 33.8778 -84.7594 134° Southeast 405 466 11,500 -865 Descending Atlanta Center
Mon 09:57:36 PM 33.8167 -84.6833 126° Southeast 390 449 11,000 -288 Descending Atlanta TRACON
Mon 09:58:36 PM 33.7667 -84.6000 101° East 328 377 11,000 -150 Level Atlanta TRACON
Mon 09:59:36 PM 33.7500 -84.5000 90° East 269 310 10,700 -800 Descending Atlanta TRACON
Mon 10:00:36 PM 33.7500 -84.4167 90° East 270 311 9,400 -1,350 Descending Atlanta TRACON
Mon 10:01:36 PM 33.7500 -84.3333 90° East 239 275 8,000 -1,200 Descending Atlanta TRACON
Mon 10:02:36 PM 33.7500 -84.2667 164° South 207 238 7,000 -1,400 Descending Atlanta TRACON
Mon 10:03:36 PM 33.7000 -84.2500 203° Southwest 187 215 5,200 -1,800 Descending Atlanta TRACON
Mon 10:04:36 PM 33.6667 -84.2667 248° West 196 226 3,400 -1,450 Descending Atlanta TRACON
Mon 10:05:36 PM 33.6500 -84.3167 270° West 171 197 2,300 -900 Descending Atlanta TRACON
Mon 10:06:36 PM 33.6500 -84.3667 270° West 127 146 1,600 -700 Descending Atlanta TRACON

Login

Don't have an account? Register now (free) for customized features, flight alerts, and more!